createdAt,value
2022-08-05T00:00:52.235Z,100564.22
2022-08-05T00:01:54.435Z,100564.78
2022-08-05T00:02:56.652Z,100566.13
2022-08-05T00:03:58.737Z,100560.06
2022-08-05T00:05:00.848Z,100560.34
2022-08-05T00:06:27.824Z,100558.22
2022-08-05T00:07:59.663Z,100560.97
2022-08-05T00:08:52.988Z,100556.91
2022-08-05T00:09:54.992Z,100561.94
2022-08-05T00:11:00.797Z,100564.53
2022-08-05T00:12:04.680Z,100560.06
2022-08-05T00:13:07.014Z,100559.00
2022-08-05T00:14:21.031Z,100554.69
2022-08-05T00:15:55.668Z,100557.84
2022-08-05T00:16:53.646Z,100567.94
2022-08-05T00:17:56.010Z,100564.97
2022-08-05T00:18:58.071Z,100564.66
2022-08-05T00:20:02.634Z,100559.13
2022-08-05T00:21:08.267Z,100563.63
2022-08-05T00:22:11.326Z,100560.59
2022-08-05T00:23:15.569Z,100568.63
2022-08-05T00:24:24.696Z,100568.75
2022-08-05T00:25:45.640Z,100564.41
2022-08-05T00:26:51.894Z,100573.53
2022-08-05T00:27:55.312Z,100568.22
2022-08-05T00:28:57.351Z,100565.72
2022-08-05T00:30:00.407Z,100568.50
2022-08-05T00:31:07.650Z,100567.94
2022-08-05T00:32:15.318Z,100567.63
2022-08-05T00:34:53.627Z,100566.91
2022-08-05T00:34:55.635Z,100562.06
2022-08-05T00:36:15.186Z,100563.63
2022-08-05T00:37:20.356Z,100566.78
2022-08-05T00:38:28.792Z,100562.81
2022-08-05T00:39:36.944Z,100558.84
2022-08-05T00:40:53.153Z,100564.16
2022-08-05T00:41:55.897Z,100561.47
2022-08-05T00:43:00.396Z,100559.56
2022-08-05T00:44:03.041Z,100551.09
2022-08-05T00:45:08.668Z,100565.63
2022-08-05T00:46:13.640Z,100560.59
2022-08-05T00:47:16.564Z,100560.47
2022-08-05T00:48:27.759Z,100549.81
2022-08-05T00:49:44.711Z,100561.13
2022-08-05T00:50:54.076Z,100552.06
2022-08-05T00:51:56.070Z,100562.41
2022-08-05T00:52:58.143Z,100556.16
2022-08-05T00:54:02.523Z,100547.97
2022-08-05T00:55:05.688Z,100556.41
2022-08-05T00:56:08.264Z,100552.00
2022-08-05T00:57:10.467Z,100554.97
2022-08-05T00:58:13.927Z,100554.81
2022-08-05T00:59:16.228Z,100554.56
2022-08-05T01:00:19.976Z,100554.44
2022-08-05T01:01:42.150Z,100557.56
2022-08-05T01:02:47.367Z,100554.44
2022-08-05T01:03:53.021Z,100553.50
2022-08-05T01:04:55.905Z,100559.41
2022-08-05T01:05:58.313Z,100557.19
2022-08-05T01:07:00.577Z,100551.28
2022-08-05T01:08:40.111Z,100550.38
2022-08-05T01:09:30.358Z,100558.25
2022-08-05T01:10:40.944Z,100551.00
2022-08-05T01:12:01.843Z,100547.22
2022-08-05T01:13:19.393Z,100548.09
2022-08-05T01:14:40.953Z,100556.75
2022-08-05T01:15:54.695Z,100546.94
2022-08-05T01:16:59.316Z,100558.59
2022-08-05T01:18:05.601Z,100549.78
2022-08-05T01:19:18.552Z,100548.47
2022-08-05T01:20:46.251Z,100552.66
2022-08-05T01:22:10.832Z,100545.91
2022-08-05T01:23:23.720Z,100554.38
2022-08-05T01:24:36.326Z,100558.84
2022-08-05T01:25:52.351Z,100562.06
2022-08-05T01:27:17.528Z,100562.66
2022-08-05T01:28:36.968Z,100562.66
2022-08-05T01:29:47.297Z,100564.91
2022-08-05T01:30:59.661Z,100564.00
2022-08-05T01:32:12.543Z,100560.72
2022-08-05T01:33:25.260Z,100562.66
2022-08-05T01:34:48.764Z,100563.44
2022-08-05T01:35:53.402Z,100561.09
2022-08-05T01:37:02.975Z,100556.94
2022-08-05T01:38:06.956Z,100558.31
2022-08-05T01:39:11.057Z,100555.03
2022-08-05T01:40:17.927Z,100555.38
2022-08-05T01:41:25.495Z,100550.16
2022-08-05T01:42:31.768Z,100556.88
2022-08-05T01:43:34.769Z,100561.75
2022-08-05T01:44:39.683Z,100566.16
2022-08-05T01:45:43.290Z,100562.53
2022-08-05T01:46:46.935Z,100555.13
2022-08-05T01:47:54.471Z,100563.44
2022-08-05T01:49:00.702Z,100559.84
2022-08-05T01:50:28.581Z,100556.41
2022-08-05T01:51:33.905Z,100565.16
2022-08-05T01:52:43.234Z,100562.38
2022-08-05T01:53:57.252Z,100563.41
2022-08-05T01:55:06.954Z,100564.47
2022-08-05T01:56:13.653Z,100557.75
2022-08-05T01:58:12.772Z,100561.41
2022-08-05T01:59:08.452Z,100562.34
2022-08-05T02:00:12.527Z,100562.09
2022-08-05T02:01:16.179Z,100566.16
2022-08-05T02:02:29.773Z,100562.81
2022-08-05T02:03:36.699Z,100561.66
2022-08-05T02:04:42.758Z,100565.69
2022-08-05T02:05:49.902Z,100569.22
2022-08-05T02:06:57.830Z,100567.16
2022-08-05T02:08:01.617Z,100558.69
2022-08-05T02:09:05.183Z,100567.41
2022-08-05T02:10:08.483Z,100571.88
2022-08-05T02:11:16.096Z,100561.25
2022-08-05T02:13:15.862Z,100570.00
2022-08-05T02:14:29.138Z,100567.88
2022-08-05T02:15:44.032Z,100560.03
2022-08-05T02:16:54.817Z,100565.09
2022-08-05T02:18:31.563Z,100558.84
2022-08-05T02:19:41.396Z,100564.91
2022-08-05T02:20:58.675Z,100571.00
2022-08-05T02:22:05.525Z,100564.69
2022-08-05T02:23:12.231Z,100568.84
2022-08-05T02:24:23.119Z,100566.59
2022-08-05T02:25:33.257Z,100574.16
2022-08-05T02:26:53.810Z,100577.91
2022-08-05T02:28:00.340Z,100572.75
2022-08-05T02:29:04.035Z,100575.22
2022-08-05T02:30:10.488Z,100583.69
2022-08-05T02:31:21.260Z,100575.56
2022-08-05T02:32:30.861Z,100580.56
2022-08-05T02:33:38.354Z,100587.38
2022-08-05T02:34:42.257Z,100581.09
2022-08-05T02:35:49.967Z,100590.28
2022-08-05T02:37:05.848Z,100588.69
2022-08-05T02:38:10.059Z,100589.81
2022-08-05T02:39:21.577Z,100584.56
2022-08-05T02:40:26.113Z,100584.94
2022-08-05T02:41:43.415Z,100590.69
2022-08-05T02:42:55.900Z,100589.78
2022-08-05T02:44:06.771Z,100591.59
2022-08-05T02:45:16.513Z,100594.88
2022-08-05T02:46:20.559Z,100592.84
2022-08-05T02:47:36.516Z,100591.06
2022-08-05T02:48:55.571Z,100587.50
2022-08-05T02:49:58.224Z,100590.94
2022-08-05T02:51:04.363Z,100590.69
2022-08-05T02:52:30.148Z,100593.09
2022-08-05T02:53:35.909Z,100600.59
2022-08-05T02:54:42.807Z,100601.91
2022-08-05T02:56:00.252Z,100608.47
2022-08-05T02:57:10.090Z,100598.00
2022-08-05T02:58:31.185Z,100600.59
2022-08-05T02:59:50.209Z,100604.44
2022-08-05T03:00:56.773Z,100607.72
2022-08-05T03:02:00.943Z,100598.41
2022-08-05T03:03:07.572Z,100607.81
2022-08-05T03:04:15.735Z,100608.22
2022-08-05T03:05:21.793Z,100604.72
2022-08-05T03:06:54.597Z,100606.00
2022-08-05T03:08:08.618Z,100602.13
2022-08-05T03:09:15.748Z,100603.00
2022-08-05T03:10:24.363Z,100607.91
2022-08-05T03:11:55.164Z,100609.13
2022-08-05T03:12:51.965Z,100604.00
2022-08-05T03:14:04.066Z,100604.66
2022-08-05T03:15:09.384Z,100609.06
2022-08-05T03:16:11.531Z,100608.69
2022-08-05T03:17:17.924Z,100615.94
2022-08-05T03:18:29.859Z,100620.88
2022-08-05T03:19:34.566Z,100612.03
2022-08-05T03:20:39.041Z,100621.13
2022-08-05T03:21:50.715Z,100619.63
2022-08-05T03:22:57.226Z,100620.22
2022-08-05T03:24:00.857Z,100618.69
2022-08-05T03:25:32.859Z,100623.22
2022-08-05T03:26:31.407Z,100625.63
2022-08-05T03:27:57.933Z,100622.56
2022-08-05T03:28:56.921Z,100614.72
2022-08-05T03:30:08.531Z,100618.25
2022-08-05T03:31:11.252Z,100621.94
2022-08-05T03:32:33.409Z,100621.13
2022-08-05T03:33:51.214Z,100619.88
2022-08-05T03:34:55.324Z,100618.25
2022-08-05T03:35:58.697Z,100620.00
2022-08-05T03:37:01.687Z,100625.88
2022-08-05T03:38:04.374Z,100631.53
2022-08-05T03:39:13.032Z,100626.78
2022-08-05T03:40:31.200Z,100628.38
2022-08-05T03:41:45.222Z,100636.25
2022-08-05T03:42:51.731Z,100631.41
2022-08-05T03:44:08.269Z,100635.34
2022-08-05T03:45:22.585Z,100636.00
2022-08-05T03:46:29.493Z,100642.50
2022-08-05T03:47:35.239Z,100645.22
2022-08-05T03:48:38.006Z,100645.22
2022-08-05T03:49:51.484Z,100641.06
2022-08-05T03:52:36.505Z,100639.91
2022-08-05T03:55:34.638Z,100636.66
2022-08-05T03:55:49.808Z,100640.81
2022-08-05T03:56:04.593Z,100643.00
2022-08-05T03:57:00.169Z,100650.22
2022-08-05T03:58:04.284Z,100653.63
2022-08-05T03:59:13.699Z,100648.66
2022-08-05T04:00:26.796Z,100651.13
2022-08-05T04:01:32.331Z,100653.38
2022-08-05T04:02:45.258Z,100654.56
2022-08-05T04:04:10.704Z,100648.56
2022-08-05T04:05:13.659Z,100650.78
2022-08-05T04:06:18.170Z,100657.41
2022-08-05T04:07:24.886Z,100649.91
2022-08-05T04:08:36.069Z,100653.00
2022-08-05T04:09:39.065Z,100650.16
2022-08-05T04:10:57.867Z,100655.22
2022-08-05T04:12:00.219Z,100655.66
2022-08-05T04:13:04.322Z,100654.81
2022-08-05T04:14:07.716Z,100650.59
2022-08-05T04:15:15.545Z,100655.25
2022-08-05T04:16:24.912Z,100653.19
2022-08-05T04:17:55.489Z,100653.25
2022-08-05T04:18:53.895Z,100658.06
2022-08-05T04:19:57.232Z,100658.41
2022-08-05T04:21:01.443Z,100660.47
2022-08-05T04:22:12.217Z,100658.09
2022-08-05T04:23:16.006Z,100659.56
2022-08-05T04:24:19.407Z,100661.00
2022-08-05T04:25:57.714Z,100661.44
2022-08-05T04:26:49.811Z,100661.34
2022-08-05T04:27:57.596Z,100663.53
2022-08-05T04:29:01.176Z,100660.72
2022-08-05T04:30:10.233Z,100662.13
2022-08-05T04:31:12.414Z,100668.16
2022-08-05T04:32:23.352Z,100659.59
2022-08-05T04:34:19.341Z,100666.72
2022-08-05T04:34:57.498Z,100658.53
2022-08-05T04:36:15.829Z,100664.19
2022-08-05T04:37:22.890Z,100657.91
2022-08-05T04:38:44.312Z,100661.22
2022-08-05T04:39:53.162Z,100664.53
2022-08-05T04:40:58.018Z,100663.09
2022-08-05T04:42:01.824Z,100659.00
2022-08-05T04:43:06.212Z,100665.16
2022-08-05T04:44:13.574Z,100662.28
2022-08-05T04:45:22.913Z,100654.41
2022-08-05T04:46:33.424Z,100660.38
2022-08-05T04:47:38.626Z,100653.31
2022-08-05T04:48:44.968Z,100666.38
2022-08-05T04:50:02.582Z,100661.66
2022-08-05T04:51:12.631Z,100658.94
2022-08-05T04:52:16.456Z,100656.38
2022-08-05T04:53:19.213Z,100659.28
2022-08-05T04:54:23.139Z,100657.53
2022-08-05T04:56:14.515Z,100660.38
2022-08-05T04:56:48.605Z,100660.72
2022-08-05T04:57:51.551Z,100658.53
2022-08-05T04:58:56.733Z,100659.94
2022-08-05T04:59:58.953Z,100661.38
2022-08-05T05:01:01.222Z,100665.75
2022-08-05T05:02:07.155Z,100661.19
2022-08-05T05:03:12.050Z,100658.19
2022-08-05T05:04:20.947Z,100657.88
2022-08-05T05:05:28.891Z,100660.88
2022-08-05T05:06:40.671Z,100654.44
2022-08-05T05:07:52.995Z,100659.84
2022-08-05T05:09:01.245Z,100666.47
2022-08-05T05:10:07.912Z,100665.84
2022-08-05T05:11:10.780Z,100666.16
2022-08-05T05:12:17.248Z,100659.53
2022-08-05T05:13:19.276Z,100668.38
2022-08-05T05:14:28.047Z,100669.94
2022-08-05T05:15:59.096Z,100667.75
2022-08-05T05:16:56.482Z,100666.50
2022-08-05T05:18:00.111Z,100667.16
2022-08-05T05:19:18.068Z,100671.06
2022-08-05T05:20:21.750Z,100668.69
2022-08-05T05:21:30.268Z,100670.28
2022-08-05T05:22:36.130Z,100671.53
2022-08-05T05:24:03.686Z,100659.22
2022-08-05T05:25:16.935Z,100663.59
2022-08-05T05:26:19.899Z,100651.88
2022-08-05T05:27:45.377Z,100660.69
2022-08-05T05:28:48.326Z,100662.25
2022-08-05T05:30:04.453Z,100659.44
2022-08-05T05:31:08.806Z,100658.97
2022-08-05T05:32:12.730Z,100667.00
2022-08-05T05:33:23.311Z,100672.84
2022-08-05T05:34:26.945Z,100671.47
2022-08-05T05:35:34.225Z,100665.41
2022-08-05T05:36:39.986Z,100664.47
2022-08-05T05:38:00.198Z,100667.88
2022-08-05T05:39:04.649Z,100661.31
2022-08-05T05:40:15.260Z,100667.81
2022-08-05T05:41:17.296Z,100667.59
2022-08-05T05:42:20.867Z,100659.00
2022-08-05T05:43:57.598Z,100670.53
2022-08-05T05:44:52.984Z,100666.00
2022-08-05T05:46:16.105Z,100674.97
2022-08-05T05:47:30.581Z,100671.31
2022-08-05T05:48:44.520Z,100665.16
2022-08-05T05:49:47.568Z,100676.66
2022-08-05T05:50:58.769Z,100672.13
2022-08-05T05:52:28.612Z,100676.50
2022-08-05T05:53:54.037Z,100676.91
2022-08-05T05:55:01.364Z,100678.34
2022-08-05T05:56:04.379Z,100680.69
2022-08-05T05:57:13.570Z,100673.31
2022-08-05T05:58:31.428Z,100685.91
2022-08-05T06:01:02.115Z,100676.31
2022-08-05T06:02:32.588Z,100682.78
2022-08-05T06:04:00.376Z,100678.09
2022-08-05T06:05:03.473Z,100675.94
2022-08-05T06:06:12.434Z,100680.63
2022-08-05T06:07:17.810Z,100678.66
2022-08-05T06:08:32.321Z,100675.47
2022-08-05T06:09:50.157Z,100685.00
2022-08-05T06:10:57.463Z,100687.69
2022-08-05T06:12:02.471Z,100685.34
2022-08-05T06:13:05.952Z,100676.84
2022-08-05T06:14:08.405Z,100682.69
2022-08-05T06:15:23.524Z,100690.53
2022-08-05T06:16:32.722Z,100688.44
2022-08-05T06:17:53.382Z,100684.44
2022-08-05T06:18:56.341Z,100684.53
2022-08-05T06:20:03.063Z,100682.25
2022-08-05T06:21:08.024Z,100679.66
2022-08-05T06:22:30.507Z,100683.03
2022-08-05T06:23:43.966Z,100681.19
2022-08-05T06:24:48.437Z,100683.38
2022-08-05T06:26:12.746Z,100683.34
2022-08-05T06:27:17.368Z,100687.53
2022-08-05T06:28:37.062Z,100691.56
2022-08-05T06:29:46.890Z,100682.44
2022-08-05T06:30:54.360Z,100689.41
2022-08-05T06:31:57.410Z,100688.47
2022-08-05T06:33:02.345Z,100687.59
2022-08-05T06:34:09.005Z,100685.78
2022-08-05T06:35:15.442Z,100685.00
2022-08-05T06:36:37.395Z,100691.50
2022-08-05T06:37:58.999Z,100686.47
2022-08-05T06:39:04.144Z,100694.50
2022-08-05T06:40:09.044Z,100696.28
2022-08-05T06:41:11.726Z,100691.16
2022-08-05T06:42:16.520Z,100700.31
2022-08-05T06:43:57.634Z,100696.78
2022-08-05T06:44:42.817Z,100693.38
2022-08-05T06:46:03.881Z,100693.94
2022-08-05T06:47:30.247Z,100707.03
2022-08-05T06:48:53.583Z,100709.63
2022-08-05T06:50:01.113Z,100702.25
2022-08-05T06:51:09.545Z,100704.25
2022-08-05T06:52:36.965Z,100704.97
2022-08-05T06:53:39.127Z,100703.50
2022-08-05T06:54:41.593Z,100703.28
2022-08-05T06:55:43.752Z,100699.56
2022-08-05T06:56:54.460Z,100715.09
2022-08-05T06:58:20.342Z,100707.81
2022-08-05T06:59:19.365Z,100712.78
2022-08-05T07:00:24.806Z,100714.91
2022-08-05T07:01:27.685Z,100714.41
2022-08-05T07:02:42.247Z,100716.47
2022-08-05T07:03:44.365Z,100711.69
2022-08-05T07:04:46.484Z,100708.00
2022-08-05T07:05:48.571Z,100712.50
2022-08-05T07:06:51.850Z,100716.31
2022-08-05T07:07:53.984Z,100712.59
2022-08-05T07:08:56.401Z,100713.59
2022-08-05T07:10:03.548Z,100722.69
2022-08-05T07:11:06.424Z,100717.50
2022-08-05T07:12:36.279Z,100710.75
2022-08-05T07:13:59.844Z,100716.97
2022-08-05T07:15:34.790Z,100711.09
2022-08-05T07:17:57.033Z,100707.31
2022-08-05T07:18:14.696Z,100717.09
2022-08-05T07:20:10.508Z,100711.28
2022-08-05T07:20:44.703Z,100706.91
2022-08-05T07:22:00.058Z,100703.94
2022-08-05T07:23:04.506Z,100704.13
2022-08-05T07:24:11.320Z,100701.28
2022-08-05T07:25:24.116Z,100706.56
2022-08-05T07:26:36.144Z,100711.59
2022-08-05T07:27:57.771Z,100709.44
2022-08-05T07:29:00.394Z,100705.56
2022-08-05T07:30:24.083Z,100706.84
2022-08-05T07:31:40.855Z,100713.81
2022-08-05T07:32:53.316Z,100704.25
2022-08-05T07:33:55.753Z,100701.31
2022-08-05T07:36:04.715Z,100703.28
2022-08-05T07:36:24.581Z,100700.13
2022-08-05T07:37:37.483Z,100705.13
2022-08-05T07:38:43.475Z,100697.53
2022-08-05T07:40:04.063Z,100692.66
2022-08-05T07:41:35.092Z,100696.72
2022-08-05T07:42:33.901Z,100692.78
2022-08-05T07:43:36.434Z,100692.84
2022-08-05T07:44:39.200Z,100700.06
2022-08-05T07:45:56.682Z,100685.56
2022-08-05T07:47:00.720Z,100685.41
2022-08-05T07:48:14.675Z,100683.47
2022-08-05T07:49:43.393Z,100689.63
2022-08-05T07:50:56.474Z,100686.47
2022-08-05T07:52:01.938Z,100693.47
2022-08-05T07:53:04.565Z,100694.41
2022-08-05T07:54:08.546Z,100688.66
2022-08-05T07:55:44.448Z,100676.00
2022-08-05T07:56:59.883Z,100688.50
2022-08-05T07:58:03.163Z,100680.41
2022-08-05T07:59:08.552Z,100693.97
2022-08-05T08:00:14.482Z,100684.03
2022-08-05T08:01:16.991Z,100679.09
2022-08-05T08:02:31.214Z,100685.09
2022-08-05T08:03:48.875Z,100681.09
2022-08-05T08:04:53.965Z,100669.63
2022-08-05T08:05:56.063Z,100669.66
2022-08-05T08:07:01.052Z,100659.25
2022-08-05T08:08:07.653Z,100675.28
2022-08-05T08:09:14.632Z,100669.31
2022-08-05T08:10:20.560Z,100671.59
2022-08-05T08:11:27.397Z,100673.06
2022-08-05T08:12:48.674Z,100673.94
2022-08-05T08:14:00.898Z,100674.88
2022-08-05T08:15:04.756Z,100679.22
2022-08-05T08:16:35.317Z,100676.75
2022-08-05T08:17:35.265Z,100673.13
2022-08-05T08:18:37.601Z,100674.38
2022-08-05T08:20:42.795Z,100685.47
2022-08-05T08:21:09.715Z,100675.03
2022-08-05T08:22:27.062Z,100670.56
2022-08-05T08:24:01.104Z,100661.81
2022-08-05T08:24:52.154Z,100663.28
2022-08-05T08:26:00.809Z,100675.06
2022-08-05T08:27:07.084Z,100674.69
2022-08-05T08:28:18.921Z,100663.34
2022-08-05T08:30:06.529Z,100665.16
2022-08-05T08:31:01.617Z,100672.22
2022-08-05T08:32:04.161Z,100681.44
2022-08-05T08:33:13.638Z,100671.03
2022-08-05T08:34:30.532Z,100675.81
2022-08-05T08:35:41.436Z,100673.47
2022-08-05T08:37:03.140Z,100665.97
2022-08-05T08:38:07.075Z,100671.81
2022-08-05T08:39:15.647Z,100672.81
2022-08-05T08:40:18.662Z,100669.59
2022-08-05T08:41:26.185Z,100671.53
2022-08-05T08:42:52.390Z,100669.00
2022-08-05T08:45:18.347Z,100671.22
2022-08-05T08:45:26.649Z,100672.19
2022-08-05T08:46:32.253Z,100663.53
2022-08-05T08:48:06.878Z,100667.19
2022-08-05T08:49:17.389Z,100665.53
2022-08-05T08:50:31.671Z,100660.47
2022-08-05T08:52:03.773Z,100659.50
2022-08-05T08:53:12.339Z,100660.72
2022-08-05T08:54:15.468Z,100655.56
2022-08-05T08:55:19.610Z,100666.41
2022-08-05T08:56:37.378Z,100666.66
2022-08-05T08:57:58.120Z,100670.44
2022-08-05T08:59:01.356Z,100666.69
2022-08-05T09:00:12.431Z,100671.38
2022-08-05T09:01:19.718Z,100659.34
2022-08-05T09:02:24.154Z,100663.50
2022-08-05T09:03:45.053Z,100663.19
2022-08-05T09:05:15.911Z,100662.28
2022-08-05T09:06:11.547Z,100658.47
2022-08-05T09:07:19.636Z,100649.34
2022-08-05T09:08:31.695Z,100658.25
2022-08-05T09:09:36.020Z,100655.69
2022-08-05T09:10:46.879Z,100655.78
2022-08-05T09:11:51.025Z,100652.19
2022-08-05T09:12:57.253Z,100658.75
2022-08-05T09:14:54.495Z,100654.84
2022-08-05T09:15:30.422Z,100654.84
2022-08-05T09:16:33.223Z,100644.47
2022-08-05T09:17:42.312Z,100647.31
2022-08-05T09:18:48.895Z,100649.16
2022-08-05T09:20:01.656Z,100649.25
2022-08-05T09:21:11.739Z,100645.53
2022-08-05T09:22:31.987Z,100641.06
2022-08-05T09:23:37.516Z,100637.22
2022-08-05T09:25:01.423Z,100642.19
2022-08-05T09:26:20.607Z,100634.63
2022-08-05T09:28:04.126Z,100639.09
2022-08-05T09:28:59.497Z,100653.91
2022-08-05T09:30:06.332Z,100636.47
2022-08-05T09:31:44.111Z,100641.94
2022-08-05T09:32:51.273Z,100637.38
2022-08-05T09:34:10.432Z,100634.75
2022-08-05T09:35:26.545Z,100636.56
2022-08-05T09:36:54.783Z,100632.41
2022-08-05T09:38:12.035Z,100637.09
2022-08-05T09:39:22.212Z,100627.31
2022-08-05T09:40:41.211Z,100623.88
2022-08-05T09:42:04.239Z,100617.38
2022-08-05T09:43:08.570Z,100617.78
2022-08-05T09:44:11.187Z,100622.59
2022-08-05T09:46:04.729Z,100613.22
2022-08-05T09:46:35.565Z,100617.94
2022-08-05T09:47:54.980Z,100612.63
2022-08-05T09:49:08.138Z,100613.69
2022-08-05T09:50:38.711Z,100611.38
2022-08-05T09:51:43.663Z,100621.56
2022-08-05T09:53:05.461Z,100618.63
2022-08-05T09:54:11.597Z,100611.09
2022-08-05T09:55:57.128Z,100624.41
2022-08-05T09:56:39.605Z,100626.16
2022-08-05T09:57:43.308Z,100619.84
2022-08-05T09:59:04.231Z,100618.75
2022-08-05T10:00:19.115Z,100614.53
2022-08-05T10:01:32.047Z,100621.56
2022-08-05T10:02:43.151Z,100619.56
2022-08-05T10:03:59.538Z,100623.56
2022-08-05T10:05:13.854Z,100620.31
2022-08-05T10:06:20.732Z,100614.34
2022-08-05T10:08:36.586Z,100615.75
2022-08-05T10:08:50.355Z,100612.19
2022-08-05T10:10:15.324Z,100606.25
2022-08-05T10:11:18.318Z,100603.66
2022-08-05T10:12:30.547Z,100602.38
2022-08-05T10:13:47.247Z,100605.00
2022-08-05T10:14:50.901Z,100609.44
2022-08-05T10:16:00.586Z,100604.94
2022-08-05T10:17:36.971Z,100601.50
2022-08-05T10:18:38.955Z,100611.78
2022-08-05T10:20:03.677Z,100608.91
2022-08-05T10:21:11.904Z,100607.16
2022-08-05T10:22:30.355Z,100606.44
2022-08-05T10:23:55.782Z,100599.09
2022-08-05T10:25:01.495Z,100604.31
2022-08-05T10:26:14.390Z,100593.19
2022-08-05T10:27:18.289Z,100604.56
2022-08-05T10:28:30.574Z,100594.47
2022-08-05T10:30:07.071Z,100597.44
2022-08-05T10:32:52.970Z,100599.53
2022-08-05T10:33:01.293Z,100600.13
2022-08-05T10:33:54.018Z,100598.16
2022-08-05T10:35:00.942Z,100605.41
2022-08-05T10:36:04.698Z,100594.78
2022-08-05T10:37:07.258Z,100598.16
2022-08-05T10:38:11.935Z,100597.06
2022-08-05T10:39:24.958Z,100598.66
2022-08-05T10:40:52.316Z,100600.97
2022-08-05T10:42:11.322Z,100598.31
2022-08-05T10:43:23.301Z,100597.28
2022-08-05T10:44:34.116Z,100599.38
2022-08-05T10:45:40.250Z,100589.97
2022-08-05T10:46:56.533Z,100592.88
2022-08-05T10:48:31.610Z,100589.25
2022-08-05T10:49:26.966Z,100589.00
2022-08-05T10:51:22.022Z,100580.44
2022-08-05T10:52:46.916Z,100589.56
2022-08-05T10:53:51.755Z,100592.00
2022-08-05T10:55:15.926Z,100592.47
2022-08-05T10:56:30.261Z,100590.66
2022-08-05T10:57:39.561Z,100582.38
2022-08-05T10:58:54.038Z,100584.94
2022-08-05T11:00:19.741Z,100598.50
2022-08-05T11:01:55.144Z,100583.78
2022-08-05T11:03:24.924Z,100580.34
2022-08-05T11:04:30.708Z,100591.34
2022-08-05T11:05:35.027Z,100588.00
2022-08-05T11:07:06.667Z,100589.69
2022-08-05T11:08:34.283Z,100580.22
2022-08-05T11:09:46.206Z,100578.25
2022-08-05T11:10:50.340Z,100582.97
2022-08-05T11:12:04.213Z,100586.84
2022-08-05T11:13:09.294Z,100576.81
2022-08-05T11:14:12.930Z,100584.69
2022-08-05T11:15:21.387Z,100588.13
2022-08-05T11:16:33.797Z,100584.44
2022-08-05T11:17:59.261Z,100578.00
2022-08-05T11:20:11.500Z,100584.69
2022-08-05T11:20:51.608Z,100585.50
2022-08-05T11:21:55.407Z,100584.09
2022-08-05T11:23:05.828Z,100583.03
2022-08-05T11:24:29.949Z,100580.00
2022-08-05T11:26:05.102Z,100584.03
2022-08-05T11:27:37.031Z,100578.19
2022-08-05T11:28:54.787Z,100575.34
2022-08-05T11:30:00.416Z,100572.50
2022-08-05T11:31:02.493Z,100578.16
2022-08-05T11:32:29.465Z,100575.56
2022-08-05T11:33:51.842Z,100573.56
2022-08-05T11:34:56.262Z,100576.47
2022-08-05T11:36:08.455Z,100584.28
2022-08-05T11:38:30.351Z,100572.88
2022-08-05T11:38:46.086Z,100580.16
2022-08-05T11:40:00.580Z,100572.13
2022-08-05T11:41:54.811Z,100568.81
2022-08-05T11:42:42.279Z,100574.00
2022-08-05T11:44:05.002Z,100566.88
2022-08-05T11:45:23.093Z,100569.81
2022-08-05T11:46:58.311Z,100571.13
2022-08-05T11:48:12.346Z,100561.88
2022-08-05T11:49:19.494Z,100568.97
2022-08-05T11:50:21.690Z,100558.28
2022-08-05T11:51:44.586Z,100564.63
2022-08-05T11:52:53.094Z,100564.81
2022-08-05T11:53:57.234Z,100564.03
2022-08-05T11:55:07.353Z,100561.53
2022-08-05T11:56:11.395Z,100559.94
2022-08-05T11:57:25.015Z,100571.41
2022-08-05T11:58:41.390Z,100562.13
2022-08-05T11:59:55.544Z,100564.84
2022-08-05T12:01:12.236Z,100569.94
2022-08-05T12:02:32.360Z,100564.75
2022-08-05T12:04:04.666Z,100570.44
2022-08-05T12:05:18.355Z,100568.88
2022-08-05T12:06:23.860Z,100569.06
2022-08-05T12:08:03.664Z,100565.50
2022-08-05T12:08:53.062Z,100567.84
2022-08-05T12:10:00.887Z,100572.50
2022-08-05T12:11:09.048Z,100568.63
2022-08-05T12:12:11.177Z,100564.66
2022-08-05T12:13:27.713Z,100561.31
2022-08-05T12:14:43.273Z,100558.78
2022-08-05T12:15:50.337Z,100558.28
2022-08-05T12:16:54.483Z,100556.00
2022-08-05T12:18:03.878Z,100552.59
2022-08-05T12:20:17.142Z,100556.28
2022-08-05T12:20:39.541Z,100560.16
2022-08-05T12:21:49.345Z,100560.81
2022-08-05T12:22:52.052Z,100554.63
2022-08-05T12:24:11.019Z,100552.28
2022-08-05T12:25:14.256Z,100554.66
2022-08-05T12:26:18.647Z,100553.06
2022-08-05T12:27:25.695Z,100552.88
2022-08-05T12:28:38.390Z,100546.88
2022-08-05T12:29:40.613Z,100546.63
2022-08-05T12:30:46.186Z,100554.44
2022-08-05T12:31:55.106Z,100551.53
2022-08-05T12:33:07.434Z,100553.97
2022-08-05T12:34:26.922Z,100547.41
2022-08-05T12:35:37.223Z,100547.47
2022-08-05T12:36:43.353Z,100552.34
2022-08-05T12:37:49.626Z,100546.19
2022-08-05T12:38:57.570Z,100550.31
2022-08-05T12:40:03.476Z,100552.88
2022-08-05T12:41:14.850Z,100545.13
2022-08-05T12:42:20.807Z,100548.31
2022-08-05T12:43:23.548Z,100545.38
2022-08-05T12:44:33.400Z,100549.56
2022-08-05T12:45:49.832Z,100552.22
2022-08-05T12:46:54.072Z,100551.78
2022-08-05T12:48:17.028Z,100549.44
2022-08-05T12:49:19.060Z,100556.50
2022-08-05T12:50:21.441Z,100552.34
2022-08-05T12:52:13.745Z,100551.78
2022-08-05T12:53:01.433Z,100544.50
2022-08-05T12:54:04.913Z,100548.94
2022-08-05T12:55:25.574Z,100541.44
2022-08-05T12:56:35.269Z,100539.66
2022-08-05T12:58:51.350Z,100525.88
2022-08-05T12:59:20.749Z,100531.66
2022-08-05T13:02:02.435Z,100532.69
2022-08-05T13:02:09.818Z,100536.34
2022-08-05T13:03:13.665Z,100535.84
2022-08-05T13:04:21.015Z,100531.41
2022-08-05T13:05:24.960Z,100532.97
2022-08-05T13:06:51.468Z,100527.00
2022-08-05T13:07:59.948Z,100527.00
2022-08-05T13:09:12.549Z,100528.03
2022-08-05T13:10:20.142Z,100524.16
2022-08-05T13:11:25.436Z,100527.28
2022-08-05T13:12:51.307Z,100539.56
2022-08-05T13:14:04.667Z,100535.06
2022-08-05T13:15:16.436Z,100529.34
2022-08-05T13:16:27.928Z,100530.91
2022-08-05T13:17:41.774Z,100534.06
2022-08-05T13:18:58.649Z,100526.25
2022-08-05T13:20:06.141Z,100526.72
2022-08-05T13:21:10.898Z,100527.25
2022-08-05T13:22:14.547Z,100522.56
2022-08-05T13:23:30.521Z,100533.19
2022-08-05T13:24:51.027Z,100539.59
2022-08-05T13:25:59.488Z,100532.03
2022-08-05T13:27:03.828Z,100531.22
2022-08-05T13:28:07.466Z,100535.19
2022-08-05T13:29:19.075Z,100528.38
2022-08-05T13:30:39.064Z,100525.28
2022-08-05T13:32:03.766Z,100531.19
2022-08-05T13:33:04.870Z,100525.16
2022-08-05T13:34:22.502Z,100520.88
2022-08-05T13:35:43.118Z,100522.50
2022-08-05T13:36:49.912Z,100531.41
2022-08-05T13:37:55.785Z,100524.34
2022-08-05T13:38:58.114Z,100526.13